createdAt,value
2019-02-14T00:01:55.153Z,7.67
2019-02-14T00:04:35.815Z,8.80
2019-02-14T00:07:05.331Z,12.50
2019-02-14T00:09:36.882Z,10.33
2019-02-14T00:12:07.356Z,8.60
2019-02-14T00:14:42.656Z,9.33
2019-02-14T00:17:13.114Z,8.57
2019-02-14T00:19:43.646Z,7.47
2019-02-14T00:22:14.119Z,10.63
2019-02-14T00:24:43.655Z,9.10
2019-02-14T00:27:13.197Z,10.57
2019-02-14T00:29:42.707Z,8.07
2019-02-14T00:32:13.200Z,9.13
2019-02-14T00:34:44.831Z,11.70
2019-02-14T00:37:14.383Z,8.80
2019-02-14T00:39:43.907Z,8.60
2019-02-14T00:42:13.359Z,9.67
2019-02-14T00:44:42.887Z,8.63
2019-02-14T00:47:14.478Z,8.30
2019-02-14T00:49:43.940Z,9.77
2019-02-14T00:52:13.497Z,8.67
2019-02-14T00:54:45.051Z,9.07
2019-02-14T00:57:14.931Z,8.97
2019-02-14T00:59:45.980Z,9.03
2019-02-14T01:02:15.611Z,9.10
2019-02-14T01:04:45.171Z,9.97
2019-02-14T01:07:26.920Z,6.77
2019-02-14T01:09:56.374Z,8.77
2019-02-14T01:12:25.875Z,8.73
2019-02-14T01:14:57.381Z,7.37
2019-02-14T01:17:26.865Z,7.67
2019-02-14T01:19:56.410Z,8.33
2019-02-14T01:22:28.170Z,8.87
2019-02-14T01:24:59.669Z,9.23
2019-02-14T01:27:29.073Z,8.93
2019-02-14T01:29:58.586Z,8.07
2019-02-14T01:32:29.067Z,7.17
2019-02-14T01:34:59.655Z,7.03
2019-02-14T01:37:39.012Z,7.87
2019-02-14T01:40:10.554Z,8.10
2019-02-14T01:42:40.975Z,8.80
2019-02-14T01:45:11.100Z,7.77
2019-02-14T01:47:40.626Z,7.33
2019-02-14T01:50:10.423Z,6.90
2019-02-14T01:52:39.954Z,7.97
2019-02-14T01:55:19.605Z,6.97
2019-02-14T01:57:51.087Z,8.13
2019-02-14T02:00:20.618Z,9.80
2019-02-14T02:02:54.410Z,9.53
2019-02-14T02:05:23.873Z,8.77
2019-02-14T02:07:53.293Z,7.90
2019-02-14T02:10:22.785Z,9.43
2019-02-14T02:12:52.154Z,8.57
2019-02-14T02:15:21.511Z,10.60
2019-02-14T02:17:50.893Z,9.70
2019-02-14T02:20:20.325Z,8.17
2019-02-14T02:22:49.732Z,10.43
2019-02-14T02:25:19.278Z,10.37
2019-02-14T02:27:48.668Z,7.50
2019-02-14T02:30:18.115Z,8.27
2019-02-14T02:32:49.554Z,9.97
2019-02-14T02:35:19.035Z,8.03
2019-02-14T02:37:48.445Z,8.33
2019-02-14T02:40:17.889Z,7.90
2019-02-14T02:42:53.331Z,7.80
2019-02-14T02:45:22.766Z,9.43
2019-02-14T02:47:52.153Z,8.67
2019-02-14T02:50:21.594Z,10.60
2019-02-14T02:52:51.031Z,10.27
2019-02-14T02:55:20.449Z,9.73
2019-02-14T02:57:49.905Z,11.37
2019-02-14T03:00:24.128Z,8.83
2019-02-14T03:02:53.529Z,12.00
2019-02-14T03:05:22.976Z,8.90
2019-02-14T03:07:52.416Z,10.40
2019-02-14T03:10:21.744Z,12.30
2019-02-14T03:12:51.160Z,9.93
2019-02-14T03:15:20.593Z,10.00
2019-02-14T03:17:50.156Z,10.13
2019-02-14T03:20:38.837Z,10.03
2019-02-14T03:23:10.394Z,10.17
2019-02-14T03:25:39.885Z,10.00
2019-02-14T03:28:11.439Z,9.87
2019-02-14T03:30:40.938Z,8.80
2019-02-14T03:33:13.640Z,11.83
2019-02-14T03:35:43.088Z,10.77
2019-02-14T03:38:12.655Z,9.57
2019-02-14T03:40:43.163Z,9.67
2019-02-14T03:43:12.709Z,7.93
2019-02-14T03:45:48.015Z,9.53
2019-02-14T03:48:17.599Z,10.60
2019-02-14T03:50:48.176Z,9.60
2019-02-14T03:53:18.738Z,8.33
2019-02-14T03:55:48.265Z,10.53
2019-02-14T03:58:18.775Z,9.67
2019-02-14T04:00:50.194Z,9.53
2019-02-14T04:03:21.735Z,11.60
2019-02-14T04:05:51.215Z,9.60
2019-02-14T04:08:20.698Z,14.73
2019-02-14T04:10:51.220Z,10.23
2019-02-14T04:13:30.717Z,10.37
2019-02-14T04:16:01.134Z,8.77
2019-02-14T04:18:30.616Z,10.83
2019-02-14T04:21:00.136Z,10.73
2019-02-14T04:23:29.670Z,10.90
2019-02-14T04:25:59.107Z,10.63
2019-02-14T04:28:33.778Z,10.13
2019-02-14T04:31:04.176Z,13.77
2019-02-14T04:33:34.644Z,11.10
2019-02-14T04:36:20.905Z,11.80
2019-02-14T04:38:50.365Z,8.70
2019-02-14T04:41:22.001Z,10.57
2019-02-14T04:43:53.682Z,11.57
2019-02-14T04:46:23.171Z,10.13
2019-02-14T04:48:53.673Z,11.00
2019-02-14T04:51:23.264Z,8.43
2019-02-14T04:53:52.689Z,10.07
2019-02-14T04:56:22.238Z,8.83
2019-02-14T04:58:51.693Z,9.33
2019-02-14T05:01:21.139Z,9.27
2019-02-14T05:03:50.693Z,10.13
2019-02-14T05:06:28.253Z,10.67
2019-02-14T05:09:01.930Z,10.03
2019-02-14T05:11:32.481Z,9.13
2019-02-14T05:14:02.002Z,11.83
2019-02-14T05:16:31.538Z,10.07
2019-02-14T05:19:04.259Z,12.23
2019-02-14T05:21:35.837Z,11.03
2019-02-14T05:24:05.225Z,12.47
2019-02-14T05:26:34.781Z,11.47
2019-02-14T05:29:04.363Z,12.97
2019-02-14T05:31:33.952Z,11.77
2019-02-14T05:34:03.471Z,17.40
2019-02-14T05:36:32.926Z,14.13
2019-02-14T05:39:11.355Z,25.30
2019-02-14T05:41:42.859Z,15.37
2019-02-14T05:44:13.382Z,11.50
2019-02-14T05:46:42.939Z,11.97
2019-02-14T05:49:12.451Z,13.40
2019-02-14T05:51:42.957Z,12.60
2019-02-14T05:54:13.421Z,14.03
2019-02-14T05:56:43.962Z,12.57
2019-02-14T05:59:14.581Z,18.23
2019-02-14T06:01:45.999Z,14.03
2019-02-14T06:04:15.480Z,15.07
2019-02-14T06:06:46.940Z,14.83
2019-02-14T06:09:18.459Z,10.97
2019-02-14T06:11:48.002Z,11.87
2019-02-14T06:14:23.444Z,12.63
2019-02-14T06:16:53.124Z,34.43
2019-02-14T06:19:24.652Z,10.10
2019-02-14T06:21:55.213Z,28.93
2019-02-14T06:24:24.701Z,15.17
2019-02-14T06:26:54.212Z,10.90
2019-02-14T06:29:23.771Z,11.20
2019-02-14T06:31:55.194Z,11.93
2019-02-14T06:34:24.735Z,11.20
2019-02-14T06:36:54.553Z,12.43
2019-02-14T06:39:24.069Z,10.43
2019-02-14T06:41:55.565Z,12.80
2019-02-14T06:44:25.019Z,13.23
2019-02-14T06:46:54.491Z,12.30
2019-02-14T06:49:47.977Z,15.73
2019-02-14T06:52:18.559Z,15.00
2019-02-14T06:54:48.375Z,12.90
2019-02-14T06:57:17.950Z,13.40
2019-02-14T06:59:51.689Z,13.70
2019-02-14T07:02:21.274Z,14.43
2019-02-14T07:04:51.684Z,12.60
2019-02-14T07:07:22.177Z,13.93
2019-02-14T07:09:52.541Z,15.53
2019-02-14T07:12:25.381Z,14.93
2019-02-14T07:14:54.902Z,12.67
2019-02-14T07:17:24.419Z,15.10
2019-02-14T07:19:53.944Z,16.00
2019-02-14T07:22:23.459Z,12.47
2019-02-14T07:24:52.942Z,15.27
2019-02-14T07:27:23.502Z,13.17
2019-02-14T07:29:53.049Z,11.97
2019-02-14T07:32:24.563Z,12.47
2019-02-14T07:35:06.635Z,17.97
2019-02-14T07:37:38.156Z,13.87
2019-02-14T07:40:12.277Z,16.10
2019-02-14T07:42:43.816Z,17.57
2019-02-14T07:45:14.071Z,15.53
2019-02-14T07:47:44.643Z,13.83
2019-02-14T07:50:14.167Z,14.40
2019-02-14T07:52:44.587Z,11.37
2019-02-14T07:55:14.151Z,14.13
2019-02-14T07:57:50.932Z,13.53
2019-02-14T08:00:20.337Z,13.77
2019-02-14T08:02:51.804Z,12.83
2019-02-14T08:05:21.333Z,14.97
2019-02-14T08:07:51.859Z,13.97
2019-02-14T08:10:21.456Z,14.93
2019-02-14T08:12:54.214Z,14.40
2019-02-14T08:15:23.686Z,13.07
2019-02-14T08:17:53.208Z,12.60
2019-02-14T08:20:23.450Z,12.50
2019-02-14T08:23:03.084Z,12.73
2019-02-14T08:28:25.801Z,14.70
2019-02-14T08:30:55.292Z,12.97
2019-02-14T08:33:24.689Z,14.10
2019-02-14T08:35:56.254Z,15.33
2019-02-14T08:38:25.709Z,11.77
2019-02-14T08:40:57.124Z,9.63
2019-02-14T08:43:29.602Z,13.57
2019-02-14T08:46:13.008Z,10.77
2019-02-14T08:48:42.536Z,11.00
2019-02-14T08:51:13.929Z,9.20
2019-02-14T08:53:43.384Z,9.73
2019-02-14T08:56:26.077Z,9.80
2019-02-14T08:58:55.610Z,9.07
2019-02-14T09:01:26.124Z,8.77
2019-02-14T09:04:10.538Z,10.33
2019-02-14T09:06:41.969Z,10.23
2019-02-14T09:09:11.453Z,9.97
2019-02-14T09:11:53.402Z,11.83
2019-02-14T09:14:22.819Z,11.70
2019-02-14T09:16:58.341Z,10.23
2019-02-14T09:19:30.857Z,11.70
2019-02-14T09:22:06.171Z,10.10
2019-02-14T09:24:36.572Z,10.70
2019-02-14T09:27:05.994Z,10.00
2019-02-14T09:29:37.454Z,10.67
2019-02-14T09:32:07.969Z,8.83
2019-02-14T09:34:37.404Z,11.97
2019-02-14T09:37:09.188Z,11.60
2019-02-14T09:39:40.912Z,8.83
2019-02-14T09:42:12.706Z,9.87
2019-02-14T09:44:45.671Z,8.40
2019-02-14T09:47:18.495Z,11.30
2019-02-14T09:49:51.665Z,11.20
2019-02-14T09:52:24.685Z,9.27
2019-02-14T09:55:02.908Z,8.93
2019-02-14T09:57:34.403Z,9.87
2019-02-14T10:00:03.928Z,6.20
2019-02-14T10:02:33.473Z,7.53
2019-02-14T10:05:03.008Z,9.00
2019-02-14T10:08:00.301Z,7.67
2019-02-14T10:10:32.999Z,9.07
2019-02-14T10:13:02.537Z,8.90
2019-02-14T10:15:32.044Z,7.23
2019-02-14T10:18:01.539Z,5.67
2019-02-14T10:20:31.437Z,10.10
2019-02-14T10:23:01.039Z,8.87
2019-02-14T10:25:31.175Z,6.63
2019-02-14T10:28:00.706Z,6.40
2019-02-14T10:30:30.215Z,5.73
2019-02-14T10:32:59.773Z,7.70
2019-02-14T10:35:41.193Z,7.87
2019-02-14T10:38:22.002Z,9.13
2019-02-14T10:40:48.904Z,5.90
2019-02-14T10:43:24.509Z,7.60
2019-02-14T10:45:53.902Z,6.03
2019-02-14T10:48:31.303Z,6.00
2019-02-14T10:51:00.756Z,6.13
2019-02-14T10:53:41.507Z,5.97
2019-02-14T10:56:16.867Z,6.10
2019-02-14T10:58:47.399Z,8.10
2019-02-14T11:01:17.941Z,6.57
2019-02-14T11:03:50.027Z,6.77
2019-02-14T11:06:26.389Z,7.37
2019-02-14T11:08:57.949Z,7.93
2019-02-14T11:11:29.541Z,7.20
2019-02-14T11:14:00.109Z,6.87
2019-02-14T11:16:29.669Z,5.07
2019-02-14T11:18:59.207Z,6.03
2019-02-14T11:21:28.688Z,7.00
2019-02-14T11:24:03.468Z,4.13
2019-02-14T11:26:32.913Z,5.07
2019-02-14T11:29:02.332Z,6.50
2019-02-14T11:31:36.999Z,5.63
2019-02-14T11:34:12.506Z,5.83
2019-02-14T11:36:46.704Z,4.43
2019-02-14T11:39:17.504Z,5.87
2019-02-14T11:41:49.038Z,6.00
2019-02-14T11:44:24.398Z,3.37
2019-02-14T11:46:57.094Z,4.37
2019-02-14T11:49:27.583Z,4.07
2019-02-14T11:51:57.090Z,4.07
2019-02-14T11:54:26.629Z,3.67
2019-02-14T11:56:56.103Z,4.43
2019-02-14T11:59:25.578Z,2.53
2019-02-14T12:01:55.690Z,3.80
2019-02-14T12:04:25.284Z,3.90
2019-02-14T12:06:55.830Z,4.27
2019-02-14T12:09:26.260Z,4.37
2019-02-14T12:11:56.719Z,3.87
2019-02-14T12:14:28.272Z,6.40
2019-02-14T12:16:58.769Z,5.27
2019-02-14T12:19:38.176Z,5.73
2019-02-14T12:22:08.081Z,4.23
2019-02-14T12:24:37.475Z,3.83
2019-02-14T12:27:06.969Z,5.83
2019-02-14T12:29:36.401Z,3.17
2019-02-14T12:32:05.879Z,3.70
2019-02-14T12:34:35.348Z,3.30
2019-02-14T12:37:04.865Z,4.63
2019-02-14T12:39:34.327Z,6.33
2019-02-14T12:42:03.857Z,4.17
2019-02-14T12:44:42.479Z,3.10
2019-02-14T12:47:12.923Z,4.67
2019-02-14T12:49:42.447Z,4.00
2019-02-14T12:52:17.899Z,3.97
2019-02-14T12:54:47.395Z,3.10
2019-02-14T12:57:24.736Z,4.27
2019-02-14T12:59:56.310Z,4.47
2019-02-14T13:02:25.751Z,2.73
2019-02-14T13:04:55.166Z,4.43
2019-02-14T13:07:25.672Z,3.70
2019-02-14T13:09:55.218Z,4.10
2019-02-14T13:12:28.775Z,4.97
2019-02-14T13:14:58.270Z,3.73
2019-02-14T13:17:29.825Z,2.67
2019-02-14T13:19:59.319Z,3.37
2019-02-14T13:22:42.080Z,3.80
2019-02-14T13:25:12.812Z,2.60
2019-02-14T13:27:42.435Z,3.10
2019-02-14T13:30:37.170Z,3.27
2019-02-14T13:33:08.722Z,2.67
2019-02-14T13:35:38.256Z,4.00
2019-02-14T13:38:08.817Z,4.07
2019-02-14T13:40:40.419Z,4.27
2019-02-14T13:43:12.439Z,4.20
2019-02-14T13:45:41.887Z,3.20
2019-02-14T13:48:11.455Z,5.10
2019-02-14T13:50:47.848Z,3.50
2019-02-14T13:53:19.453Z,2.50
2019-02-14T13:55:48.932Z,4.63
2019-02-14T13:58:26.424Z,3.77
2019-02-14T14:01:03.345Z,4.50
2019-02-14T14:03:33.203Z,3.60
2019-02-14T14:06:02.750Z,3.17
2019-02-14T14:08:34.239Z,3.90
2019-02-14T14:11:03.804Z,3.30
2019-02-14T14:13:34.310Z,4.00
2019-02-14T14:16:03.881Z,3.00
2019-02-14T14:18:35.281Z,6.30
2019-02-14T14:21:04.759Z,4.30
2019-02-14T14:23:37.278Z,2.67
2019-02-14T14:26:08.804Z,5.13
2019-02-14T14:28:38.223Z,3.73
2019-02-14T14:31:07.683Z,2.90
2019-02-14T14:33:43.244Z,3.33
2019-02-14T14:36:14.868Z,2.90
2019-02-14T14:38:51.630Z,3.80
2019-02-14T14:41:21.191Z,3.53
2019-02-14T14:44:01.510Z,3.50
2019-02-14T14:46:38.647Z,3.33
2019-02-14T14:49:08.179Z,8.33
2019-02-14T14:51:39.698Z,4.73
2019-02-14T14:54:09.283Z,4.23
2019-02-14T14:56:39.757Z,3.77
2019-02-14T14:59:09.239Z,3.97
2019-02-14T15:01:40.794Z,4.83
2019-02-14T15:04:10.293Z,3.30
2019-02-14T15:06:40.827Z,6.00
2019-02-14T15:09:10.393Z,2.60
2019-02-14T15:11:39.862Z,3.00
2019-02-14T15:14:18.425Z,2.87
2019-02-14T15:16:48.024Z,3.60
2019-02-14T15:19:23.632Z,4.33
2019-02-14T15:21:58.962Z,4.57
2019-02-14T15:24:30.489Z,3.70
2019-02-14T15:27:01.941Z,4.83
2019-02-14T15:29:31.478Z,3.60
2019-02-14T15:32:06.942Z,4.23
2019-02-14T15:34:36.448Z,3.53
2019-02-14T15:37:05.994Z,6.30
2019-02-14T15:39:35.484Z,4.10
2019-02-14T15:42:11.798Z,3.93
2019-02-14T15:44:41.288Z,5.87
2019-02-14T15:47:10.796Z,4.07
2019-02-14T15:49:46.931Z,6.33
2019-02-14T15:52:27.857Z,5.37
2019-02-14T15:54:59.872Z,6.10
2019-02-14T15:57:30.397Z,5.40
2019-02-14T16:00:00.924Z,4.20
2019-02-14T16:02:31.255Z,4.83
2019-02-14T16:05:05.833Z,4.43
2019-02-14T16:07:36.866Z,5.63
2019-02-14T16:10:17.634Z,4.13
2019-02-14T16:12:41.229Z,5.27
2019-02-14T16:15:12.693Z,6.37
2019-02-14T16:17:43.311Z,6.70
2019-02-14T16:20:15.328Z,5.57
2019-02-14T16:22:46.350Z,6.03
2019-02-14T16:25:15.864Z,7.27
2019-02-14T16:27:55.761Z,5.63
2019-02-14T16:30:30.912Z,7.80
2019-02-14T16:33:00.418Z,9.03
2019-02-14T16:35:33.564Z,7.57
2019-02-14T16:38:03.107Z,6.43
2019-02-14T16:40:38.669Z,6.30
2019-02-14T16:43:06.026Z,6.07
2019-02-14T16:45:35.587Z,5.90
2019-02-14T16:48:11.106Z,4.67
2019-02-14T16:50:40.673Z,6.37
2019-02-14T16:53:10.206Z,8.20
2019-02-14T16:55:40.637Z,7.97
2019-02-14T16:58:11.275Z,6.20
2019-02-14T17:00:40.729Z,6.93
2019-02-14T17:03:10.214Z,6.20
2019-02-14T17:05:40.707Z,7.10
2019-02-14T17:08:10.231Z,4.73
2019-02-14T17:10:42.386Z,5.70
2019-02-14T17:13:24.312Z,5.83
2019-02-14T17:15:54.661Z,7.13
2019-02-14T17:18:25.384Z,6.37
2019-02-14T17:20:58.629Z,8.07
2019-02-14T17:23:31.234Z,8.33
2019-02-14T17:26:01.767Z,5.67
2019-02-14T17:28:35.488Z,5.93
2019-02-14T17:31:07.114Z,6.10
2019-02-14T17:33:37.088Z,7.43
2019-02-14T17:36:06.572Z,7.77
2019-02-14T17:38:41.517Z,5.27
2019-02-14T17:41:11.127Z,7.43
2019-02-14T17:43:41.533Z,5.87
2019-02-14T17:46:11.069Z,5.63
2019-02-14T17:48:40.659Z,8.37
2019-02-14T17:51:15.343Z,5.17
2019-02-14T17:53:50.889Z,5.20
2019-02-14T17:56:20.430Z,7.73
2019-02-14T17:58:51.428Z,5.23
2019-02-14T18:01:21.579Z,6.80
2019-02-14T18:03:51.039Z,7.27
2019-02-14T18:06:20.671Z,7.03
2019-02-14T18:08:50.179Z,8.40
2019-02-14T18:11:19.777Z,7.13
2019-02-14T18:13:51.201Z,7.87
2019-02-14T18:16:21.807Z,8.17
2019-02-14T18:18:51.283Z,8.00
2019-02-14T18:21:21.780Z,7.53
2019-02-14T18:23:52.287Z,8.37
2019-02-14T18:26:21.790Z,6.90
2019-02-14T18:28:51.285Z,7.60
2019-02-14T18:31:20.947Z,7.93
2019-02-14T18:33:50.563Z,11.57
2019-02-14T18:36:20.135Z,13.10
2019-02-14T18:38:53.569Z,6.23
2019-02-14T18:41:23.091Z,7.40
2019-02-14T18:43:55.699Z,5.17
2019-02-14T18:46:25.181Z,6.50
2019-02-14T18:49:02.440Z,7.37
2019-02-14T18:51:38.053Z,8.07
2019-02-14T18:54:07.613Z,6.77
2019-02-14T18:56:46.971Z,7.17
2019-02-14T18:59:18.588Z,7.30
2019-02-14T19:01:48.079Z,4.30
2019-02-14T19:04:17.691Z,6.23
2019-02-14T19:06:47.268Z,5.97
2019-02-14T19:09:19.229Z,6.23
2019-02-14T19:11:51.059Z,6.53
2019-02-14T19:14:23.724Z,7.40
2019-02-14T19:16:53.327Z,8.43
2019-02-14T19:19:24.140Z,10.27
2019-02-14T19:21:54.682Z,5.43
2019-02-14T19:24:25.313Z,7.20
2019-02-14T19:26:54.929Z,6.90
2019-02-14T19:29:25.607Z,6.03
2019-02-14T19:31:55.160Z,5.73
2019-02-14T19:34:25.737Z,5.80
2019-02-14T19:36:56.225Z,5.00
2019-02-14T19:39:25.806Z,4.37
2019-02-14T19:41:56.670Z,6.37
2019-02-14T19:44:30.485Z,7.93
2019-02-14T19:46:59.920Z,4.73
2019-02-14T19:49:29.475Z,9.13
2019-02-14T19:52:01.284Z,5.27
2019-02-14T19:54:30.814Z,6.20
2019-02-14T19:57:01.558Z,13.10
2019-02-14T19:59:33.171Z,7.97
2019-02-14T20:02:02.696Z,7.30
2019-02-14T20:04:32.291Z,9.40
2019-02-14T20:07:01.850Z,6.93
2019-02-14T20:09:33.404Z,7.13
2019-02-14T20:12:03.085Z,6.47
2019-02-14T20:14:32.804Z,6.77
2019-02-14T20:17:02.433Z,8.50
2019-02-14T20:19:32.033Z,7.87
2019-02-14T20:22:03.630Z,9.40
2019-02-14T20:24:33.192Z,8.07
2019-02-14T20:27:04.644Z,7.43
2019-02-14T20:29:37.280Z,6.60
2019-02-14T20:32:07.107Z,7.10
2019-02-14T20:34:36.592Z,7.27
2019-02-14T20:37:07.058Z,7.20
2019-02-14T20:39:36.610Z,8.63
2019-02-14T20:42:06.144Z,8.73
2019-02-14T20:44:41.036Z,13.13
2019-02-14T20:47:11.499Z,8.70
2019-02-14T20:49:41.935Z,7.80
2019-02-14T20:52:11.329Z,8.50
2019-02-14T20:54:40.782Z,9.47
2019-02-14T20:57:10.390Z,10.60
2019-02-14T20:59:39.942Z,9.33
2019-02-14T21:02:22.488Z,11.90
2019-02-14T21:04:52.152Z,7.43
2019-02-14T21:07:23.703Z,11.30
2019-02-14T21:09:54.223Z,10.87
2019-02-14T21:12:23.799Z,9.90
2019-02-14T21:14:53.342Z,10.63
2019-02-14T21:17:23.075Z,9.17
2019-02-14T21:19:53.610Z,8.23
2019-02-14T21:22:24.182Z,9.60
2019-02-14T21:24:54.714Z,11.30
2019-02-14T21:27:26.516Z,8.07
2019-02-14T21:29:56.009Z,9.07
2019-02-14T21:32:25.490Z,10.03
2019-02-14T21:34:55.010Z,7.97
2019-02-14T21:37:24.626Z,9.77
2019-02-14T21:39:54.349Z,9.50
2019-02-14T21:42:28.959Z,9.07
2019-02-14T21:44:55.936Z,10.43
2019-02-14T21:47:25.435Z,9.53
2019-02-14T21:49:54.988Z,9.40
2019-02-14T21:52:25.596Z,11.03
2019-02-14T21:54:55.327Z,8.23
2019-02-14T21:57:24.943Z,10.27
2019-02-14T21:59:55.433Z,9.13
2019-02-14T22:02:24.858Z,11.17
2019-02-14T22:05:00.283Z,10.43
2019-02-14T22:07:34.581Z,12.23
2019-02-14T22:10:02.311Z,9.13
2019-02-14T22:12:40.814Z,12.77
2019-02-14T22:15:09.982Z,14.37
2019-02-14T22:17:51.169Z,11.47
2019-02-14T22:20:20.768Z,10.23
2019-02-14T22:22:50.750Z,12.37
2019-02-14T22:25:21.702Z,14.83
2019-02-14T22:27:51.195Z,8.60
2019-02-14T22:30:24.693Z,11.77
2019-02-14T22:32:57.415Z,12.97
2019-02-14T22:35:26.948Z,10.83
2019-02-14T22:37:56.617Z,11.00
2019-02-14T22:40:26.168Z,12.47
2019-02-14T22:42:57.728Z,12.70
2019-02-14T22:45:27.239Z,14.00
2019-02-14T22:47:56.698Z,10.50
2019-02-14T22:50:28.223Z,11.47
2019-02-14T22:52:58.956Z,11.07
2019-02-14T22:55:29.414Z,10.87
2019-02-14T22:57:59.020Z,9.50
2019-02-14T23:00:36.535Z,10.53
2019-02-14T23:03:12.501Z,10.70
2019-02-14T23:05:44.675Z,9.20
2019-02-14T23:08:14.141Z,15.10
2019-02-14T23:10:44.798Z,9.27
2019-02-14T23:13:16.307Z,11.33
2019-02-14T23:15:45.769Z,11.10
2019-02-14T23:18:15.303Z,11.43
2019-02-14T23:20:46.028Z,8.60
2019-02-14T23:23:15.523Z,11.40
2019-02-14T23:25:47.444Z,11.53
2019-02-14T23:28:16.971Z,13.07
2019-02-14T23:30:47.514Z,12.77
2019-02-14T23:33:17.025Z,10.80
2019-02-14T23:35:46.491Z,9.57
2019-02-14T23:38:22.246Z,11.87
2019-02-14T23:40:51.830Z,10.10
2019-02-14T23:43:22.345Z,12.50
2019-02-14T23:45:51.816Z,8.97
2019-02-14T23:48:21.384Z,12.47
2019-02-14T23:50:51.244Z,11.43
2019-02-14T23:53:21.745Z,13.50
2019-02-14T23:56:00.105Z,9.30
2019-02-14T23:58:33.684Z,10.97
